sensor_id;sensor_type;location;lat;lon;timestamp;temperature;humidity
20070;DHT22;10195;50.868;4.382;2023-09-30T00:01:26;15.40;99.90
20070;DHT22;10195;50.868;4.382;2023-09-30T00:03:52;15.50;99.90
20070;DHT22;10195;50.868;4.382;2023-09-30T00:06:19;15.40;99.90
20070;DHT22;10195;50.868;4.382;2023-09-30T00:08:44;15.30;99.90
20070;DHT22;10195;50.868;4.382;2023-09-30T00:11:11;15.10;99.90
20070;DHT22;10195;50.868;4.382;2023-09-30T00:13:36;15.10;99.90
20070;DHT22;10195;50.868;4.382;2023-09-30T00:16:02;15.10;99.90
20070;DHT22;10195;50.868;4.382;2023-09-30T00:18:28;15.00;99.90
20070;DHT22;10195;50.868;4.382;2023-09-30T00:20:53;15.10;99.90
20070;DHT22;10195;50.868;4.382;2023-09-30T00:23:19;15.10;99.90
20070;DHT22;10195;50.868;4.382;2023-09-30T00:25:47;15.10;99.90
20070;DHT22;10195;50.868;4.382;2023-09-30T00:28:15;15.00;99.90
20070;DHT22;10195;50.868;4.382;2023-09-30T00:30:40;15.00;99.90
20070;DHT22;10195;50.868;4.382;2023-09-30T00:33:06;15.00;99.90
20070;DHT22;10195;50.868;4.382;2023-09-30T00:35:33;15.00;99.90
20070;DHT22;10195;50.868;4.382;2023-09-30T00:37:58;15.00;99.90
20070;DHT22;10195;50.868;4.382;2023-09-30T00:40:24;15.00;99.90
20070;DHT22;10195;50.868;4.382;2023-09-30T00:42:50;15.00;99.90
20070;DHT22;10195;50.868;4.382;2023-09-30T00:45:15;15.00;99.90
20070;DHT22;10195;50.868;4.382;2023-09-30T00:47:41;14.90;99.90
20070;DHT22;10195;50.868;4.382;2023-09-30T00:50:07;14.90;99.90
20070;DHT22;10195;50.868;4.382;2023-09-30T00:52:36;14.90;99.90
20070;DHT22;10195;50.868;4.382;2023-09-30T00:55:04;15.00;99.90
20070;DHT22;10195;50.868;4.382;2023-09-30T00:57:31;15.00;99.90
20070;DHT22;10195;50.868;4.382;2023-09-30T00:59:57;15.10;99.90
20070;DHT22;10195;50.868;4.382;2023-09-30T01:02:23;15.10;99.90
20070;DHT22;10195;50.868;4.382;2023-09-30T01:04:49;15.10;99.90
20070;DHT22;10195;50.868;4.382;2023-09-30T01:07:15;15.10;99.90
20070;DHT22;10195;50.868;4.382;2023-09-30T01:09:41;15.20;99.90
20070;DHT22;10195;50.868;4.382;2023-09-30T01:12:07;15.20;99.90
20070;DHT22;10195;50.868;4.382;2023-09-30T01:14:35;15.20;99.90
20070;DHT22;10195;50.868;4.382;2023-09-30T01:17:01;15.20;99.90
20070;DHT22;10195;50.868;4.382;2023-09-30T01:19:27;15.00;99.90
20070;DHT22;10195;50.868;4.382;2023-09-30T01:24:22;15.00;99.90
20070;DHT22;10195;50.868;4.382;2023-09-30T01:26:47;15.10;99.90
20070;DHT22;10195;50.868;4.382;2023-09-30T01:29:14;15.10;99.90
20070;DHT22;10195;50.868;4.382;2023-09-30T01:31:39;15.10;99.90
20070;DHT22;10195;50.868;4.382;2023-09-30T01:34:05;15.20;99.90
20070;DHT22;10195;50.868;4.382;2023-09-30T01:36:31;15.20;99.90
20070;DHT22;10195;50.868;4.382;2023-09-30T01:38:57;15.20;99.90
20070;DHT22;10195;50.868;4.382;2023-09-30T01:41:23;15.10;99.90
20070;DHT22;10195;50.868;4.382;2023-09-30T01:43:49;15.10;99.90
20070;DHT22;10195;50.868;4.382;2023-09-30T01:46:14;15.00;99.90
20070;DHT22;10195;50.868;4.382;2023-09-30T01:48:40;15.00;99.90
20070;DHT22;10195;50.868;4.382;2023-09-30T01:51:06;15.00;99.90
20070;DHT22;10195;50.868;4.382;2023-09-30T01:53:32;15.00;99.90
20070;DHT22;10195;50.868;4.382;2023-09-30T01:55:58;15.00;99.90
20070;DHT22;10195;50.868;4.382;2023-09-30T01:58:24;15.00;99.90
20070;DHT22;10195;50.868;4.382;2023-09-30T02:00:54;14.90;99.90
20070;DHT22;10195;50.868;4.382;2023-09-30T02:03:19;14.90;99.90
20070;DHT22;10195;50.868;4.382;2023-09-30T02:05:45;14.90;99.90
20070;DHT22;10195;50.868;4.382;2023-09-30T02:08:11;14.80;99.90
20070;DHT22;10195;50.868;4.382;2023-09-30T02:10:39;14.80;99.90
20070;DHT22;10195;50.868;4.382;2023-09-30T02:13:04;14.80;99.90
20070;DHT22;10195;50.868;4.382;2023-09-30T02:15:31;14.80;99.90
20070;DHT22;10195;50.868;4.382;2023-09-30T02:17:57;14.80;99.90
20070;DHT22;10195;50.868;4.382;2023-09-30T02:20:23;14.80;99.90
20070;DHT22;10195;50.868;4.382;2023-09-30T02:22:51;14.80;99.90
20070;DHT22;10195;50.868;4.382;2023-09-30T02:25:18;14.80;99.90
20070;DHT22;10195;50.868;4.382;2023-09-30T02:27:43;14.70;99.90
20070;DHT22;10195;50.868;4.382;2023-09-30T02:30:11;14.80;99.90
20070;DHT22;10195;50.868;4.382;2023-09-30T02:32:40;14.80;99.90
20070;DHT22;10195;50.868;4.382;2023-09-30T02:35:06;14.70;99.90
20070;DHT22;10195;50.868;4.382;2023-09-30T02:37:33;14.70;99.90
20070;DHT22;10195;50.868;4.382;2023-09-30T02:40:04;14.70;99.90
20070;DHT22;10195;50.868;4.382;2023-09-30T02:42:31;14.70;99.90
20070;DHT22;10195;50.868;4.382;2023-09-30T02:44:59;14.60;99.90
20070;DHT22;10195;50.868;4.382;2023-09-30T02:47:26;14.60;99.90
20070;DHT22;10195;50.868;4.382;2023-09-30T02:49:52;14.60;99.90
20070;DHT22;10195;50.868;4.382;2023-09-30T02:52:17;14.60;99.90
20070;DHT22;10195;50.868;4.382;2023-09-30T02:54:43;14.50;99.90
20070;DHT22;10195;50.868;4.382;2023-09-30T02:57:09;14.60;99.90
20070;DHT22;10195;50.868;4.382;2023-09-30T02:59:35;14.60;99.90
20070;DHT22;10195;50.868;4.382;2023-09-30T03:02:02;14.60;99.90
20070;DHT22;10195;50.868;4.382;2023-09-30T03:04:28;14.60;99.90
20070;DHT22;10195;50.868;4.382;2023-09-30T03:06:54;14.50;99.90
20070;DHT22;10195;50.868;4.382;2023-09-30T03:09:22;14.50;99.90
20070;DHT22;10195;50.868;4.382;2023-09-30T03:11:47;14.60;99.90
20070;DHT22;10195;50.868;4.382;2023-09-30T03:14:13;14.60;99.90
20070;DHT22;10195;50.868;4.382;2023-09-30T03:16:39;14.60;99.90
20070;DHT22;10195;50.868;4.382;2023-09-30T03:19:07;14.60;99.90
20070;DHT22;10195;50.868;4.382;2023-09-30T03:21:37;14.60;99.90
20070;DHT22;10195;50.868;4.382;2023-09-30T03:24:06;14.60;99.90
20070;DHT22;10195;50.868;4.382;2023-09-30T03:26:33;14.50;99.90
20070;DHT22;10195;50.868;4.382;2023-09-30T03:28:59;14.40;99.90
20070;DHT22;10195;50.868;4.382;2023-09-30T03:31:25;14.50;99.90
20070;DHT22;10195;50.868;4.382;2023-09-30T03:33:51;14.50;99.90
20070;DHT22;10195;50.868;4.382;2023-09-30T03:36:22;14.50;99.90
20070;DHT22;10195;50.868;4.382;2023-09-30T03:38:54;14.50;99.90
20070;DHT22;10195;50.868;4.382;2023-09-30T03:41:20;14.50;99.90
20070;DHT22;10195;50.868;4.382;2023-09-30T03:43:46;14.50;99.90
20070;DHT22;10195;50.868;4.382;2023-09-30T03:46:14;14.40;99.90
20070;DHT22;10195;50.868;4.382;2023-09-30T03:48:41;14.40;99.90
20070;DHT22;10195;50.868;4.382;2023-09-30T03:51:17;14.40;99.90
20070;DHT22;10195;50.868;4.382;2023-09-30T03:53:44;14.40;99.90
20070;DHT22;10195;50.868;4.382;2023-09-30T03:56:10;14.30;99.90
20070;DHT22;10195;50.868;4.382;2023-09-30T03:58:42;14.30;99.90
20070;DHT22;10195;50.868;4.382;2023-09-30T04:01:11;14.30;99.90
20070;DHT22;10195;50.868;4.382;2023-09-30T04:03:37;14.30;99.90
20070;DHT22;10195;50.868;4.382;2023-09-30T04:06:05;14.30;99.90
20070;DHT22;10195;50.868;4.382;2023-09-30T04:08:32;14.20;99.90
20070;DHT22;10195;50.868;4.382;2023-09-30T04:11:02;14.20;99.90
20070;DHT22;10195;50.868;4.382;2023-09-30T04:13:30;14.20;99.90
20070;DHT22;10195;50.868;4.382;2023-09-30T04:15:56;14.20;99.90
20070;DHT22;10195;50.868;4.382;2023-09-30T04:18:23;14.20;99.90
20070;DHT22;10195;50.868;4.382;2023-09-30T04:20:52;14.20;99.90
20070;DHT22;10195;50.868;4.382;2023-09-30T04:23:17;14.30;99.90
20070;DHT22;10195;50.868;4.382;2023-09-30T04:25:45;14.20;99.90
20070;DHT22;10195;50.868;4.382;2023-09-30T04:28:12;14.20;99.90
20070;DHT22;10195;50.868;4.382;2023-09-30T04:30:39;14.30;99.90
20070;DHT22;10195;50.868;4.382;2023-09-30T04:33:04;14.20;99.90
20070;DHT22;10195;50.868;4.382;2023-09-30T04:35:30;14.20;99.90
20070;DHT22;10195;50.868;4.382;2023-09-30T04:37:56;14.10;99.90
20070;DHT22;10195;50.868;4.382;2023-09-30T04:40:26;14.10;99.90
20070;DHT22;10195;50.868;4.382;2023-09-30T04:42:52;14.10;99.90
20070;DHT22;10195;50.868;4.382;2023-09-30T04:45:20;14.10;99.90
20070;DHT22;10195;50.868;4.382;2023-09-30T04:47:46;14.10;99.90
20070;DHT22;10195;50.868;4.382;2023-09-30T04:50:14;14.10;99.90
20070;DHT22;10195;50.868;4.382;2023-09-30T04:52:42;14.10;99.90
20070;DHT22;10195;50.868;4.382;2023-09-30T04:55:08;14.10;99.90
20070;DHT22;10195;50.868;4.382;2023-09-30T04:57:34;14.20;99.90
20070;DHT22;10195;50.868;4.382;2023-09-30T05:00:00;14.10;99.90
20070;DHT22;10195;50.868;4.382;2023-09-30T05:02:27;14.10;99.90
20070;DHT22;10195;50.868;4.382;2023-09-30T05:04:53;14.10;99.90
20070;DHT22;10195;50.868;4.382;2023-09-30T05:07:20;13.90;99.90
20070;DHT22;10195;50.868;4.382;2023-09-30T05:09:47;13.90;99.90
20070;DHT22;10195;50.868;4.382;2023-09-30T05:12:12;13.90;99.90
20070;DHT22;10195;50.868;4.382;2023-09-30T05:14:38;13.90;99.90
20070;DHT22;10195;50.868;4.382;2023-09-30T05:17:05;13.90;99.90
20070;DHT22;10195;50.868;4.382;2023-09-30T05:19:31;13.90;99.90
20070;DHT22;10195;50.868;4.382;2023-09-30T05:21:57;13.90;99.90
20070;DHT22;10195;50.868;4.382;2023-09-30T05:24:23;14.00;99.90
20070;DHT22;10195;50.868;4.382;2023-09-30T05:26:49;14.00;99.90
20070;DHT22;10195;50.868;4.382;2023-09-30T05:29:14;14.00;99.90
20070;DHT22;10195;50.868;4.382;2023-09-30T05:31:42;14.00;99.90
20070;DHT22;10195;50.868;4.382;2023-09-30T05:34:08;13.90;99.90
20070;DHT22;10195;50.868;4.382;2023-09-30T05:36:34;13.80;99.90
20070;DHT22;10195;50.868;4.382;2023-09-30T05:39:00;13.80;99.90
20070;DHT22;10195;50.868;4.382;2023-09-30T05:41:25;13.80;99.90
20070;DHT22;10195;50.868;4.382;2023-09-30T05:43:53;13.80;99.90
20070;DHT22;10195;50.868;4.382;2023-09-30T05:46:19;13.80;99.90
20070;DHT22;10195;50.868;4.382;2023-09-30T05:48:44;13.80;99.90
20070;DHT22;10195;50.868;4.382;2023-09-30T05:51:10;13.90;99.90
20070;DHT22;10195;50.868;4.382;2023-09-30T05:53:40;13.90;99.90
20070;DHT22;10195;50.868;4.382;2023-09-30T05:56:07;13.80;99.90
20070;DHT22;10195;50.868;4.382;2023-09-30T05:58:33;13.90;99.90
20070;DHT22;10195;50.868;4.382;2023-09-30T06:00:58;13.80;99.90
20070;DHT22;10195;50.868;4.382;2023-09-30T06:03:26;13.80;99.90
20070;DHT22;10195;50.868;4.382;2023-09-30T06:05:54;13.90;99.90
20070;DHT22;10195;50.868;4.382;2023-09-30T06:08:21;14.10;99.90
20070;DHT22;10195;50.868;4.382;2023-09-30T06:10:47;14.20;99.90
20070;DHT22;10195;50.868;4.382;2023-09-30T06:13:13;14.30;99.90
20070;DHT22;10195;50.868;4.382;2023-09-30T06:15:40;14.30;99.90
20070;DHT22;10195;50.868;4.382;2023-09-30T06:18:06;14.50;99.90
20070;DHT22;10195;50.868;4.382;2023-09-30T06:20:32;14.50;99.90
20070;DHT22;10195;50.868;4.382;2023-09-30T06:22:59;14.50;99.90
20070;DHT22;10195;50.868;4.382;2023-09-30T06:25:26;14.50;99.90
20070;DHT22;10195;50.868;4.382;2023-09-30T06:27:53;14.60;99.90
20070;DHT22;10195;50.868;4.382;2023-09-30T06:30:22;14.50;99.90
20070;DHT22;10195;50.868;4.382;2023-09-30T06:32:58;14.60;99.90
20070;DHT22;10195;50.868;4.382;2023-09-30T06:35:27;14.70;99.90
20070;DHT22;10195;50.868;4.382;2023-09-30T06:37:53;14.60;99.90
20070;DHT22;10195;50.868;4.382;2023-09-30T06:40:19;14.70;99.90
20070;DHT22;10195;50.868;4.382;2023-09-30T06:42:44;14.80;99.90
20070;DHT22;10195;50.868;4.382;2023-09-30T06:45:10;14.70;99.90
20070;DHT22;10195;50.868;4.382;2023-09-30T06:47:38;14.80;99.90
20070;DHT22;10195;50.868;4.382;2023-09-30T06:50:09;14.80;99.90
20070;DHT22;10195;50.868;4.382;2023-09-30T06:52:37;15.00;99.90
20070;DHT22;10195;50.868;4.382;2023-09-30T06:55:03;15.40;99.90
20070;DHT22;10195;50.868;4.382;2023-09-30T06:57:32;15.70;99.90
20070;DHT22;10195;50.868;4.382;2023-09-30T06:59:57;16.20;99.90
20070;DHT22;10195;50.868;4.382;2023-09-30T07:02:23;16.60;99.90
20070;DHT22;10195;50.868;4.382;2023-09-30T07:04:49;17.10;99.90
20070;DHT22;10195;50.868;4.382;2023-09-30T07:07:15;17.40;99.90
20070;DHT22;10195;50.868;4.382;2023-09-30T07:09:43;18.00;99.90
20070;DHT22;10195;50.868;4.382;2023-09-30T07:12:08;18.50;99.90
20070;DHT22;10195;50.868;4.382;2023-09-30T07:14:34;18.80;99.90
20070;DHT22;10195;50.868;4.382;2023-09-30T07:17:00;18.90;99.90
20070;DHT22;10195;50.868;4.382;2023-09-30T07:19:25;19.30;99.90
20070;DHT22;10195;50.868;4.382;2023-09-30T07:21:51;19.80;99.90
20070;DHT22;10195;50.868;4.382;2023-09-30T07:24:17;20.30;99.90
20070;DHT22;10195;50.868;4.382;2023-09-30T07:26:42;20.70;99.90
20070;DHT22;10195;50.868;4.382;2023-09-30T07:29:09;20.20;99.90
20070;DHT22;10195;50.868;4.382;2023-09-30T07:31:38;20.50;99.90
20070;DHT22;10195;50.868;4.382;2023-09-30T07:34:03;20.70;99.90
20070;DHT22;10195;50.868;4.382;2023-09-30T07:36:29;20.90;99.90
20070;DHT22;10195;50.868;4.382;2023-09-30T07:38:55;21.40;99.90
20070;DHT22;10195;50.868;4.382;2023-09-30T07:41:21;21.60;99.90
20070;DHT22;10195;50.868;4.382;2023-09-30T07:43:46;22.30;99.90
20070;DHT22;10195;50.868;4.382;2023-09-30T07:46:12;21.90;99.90
20070;DHT22;10195;50.868;4.382;2023-09-30T07:48:38;21.60;99.90
20070;DHT22;10195;50.868;4.382;2023-09-30T07:51:05;21.50;99.90
20070;DHT22;10195;50.868;4.382;2023-09-30T07:53:34;22.20;99.90
20070;DHT22;10195;50.868;4.382;2023-09-30T07:56:00;23.20;99.90
20070;DHT22;10195;50.868;4.382;2023-09-30T07:58:26;23.60;99.90
20070;DHT22;10195;50.868;4.382;2023-09-30T08:00:51;24.10;99.90
20070;DHT22;10195;50.868;4.382;2023-09-30T08:03:17;24.30;99.90
20070;DHT22;10195;50.868;4.382;2023-09-30T08:05:43;24.80;99.90
20070;DHT22;10195;50.868;4.382;2023-09-30T08:08:08;25.20;99.90
20070;DHT22;10195;50.868;4.382;2023-09-30T08:10:34;24.60;99.90
20070;DHT22;10195;50.868;4.382;2023-09-30T08:13:02;24.80;99.90
20070;DHT22;10195;50.868;4.382;2023-09-30T08:15:28;25.00;99.90
20070;DHT22;10195;50.868;4.382;2023-09-30T08:17:53;25.00;99.90
20070;DHT22;10195;50.868;4.382;2023-09-30T08:20:19;25.10;99.90
20070;DHT22;10195;50.868;4.382;2023-09-30T08:22:45;23.70;99.90
20070;DHT22;10195;50.868;4.382;2023-09-30T08:25:10;23.70;99.90
20070;DHT22;10195;50.868;4.382;2023-09-30T08:27:37;24.00;99.90
20070;DHT22;10195;50.868;4.382;2023-09-30T08:30:03;23.90;99.90
20070;DHT22;10195;50.868;4.382;2023-09-30T08:32:33;23.90;99.90
20070;DHT22;10195;50.868;4.382;2023-09-30T08:34:59;23.30;99.90
20070;DHT22;10195;50.868;4.382;2023-09-30T08:37:24;23.60;99.90
20070;DHT22;10195;50.868;4.382;2023-09-30T08:39:50;24.20;99.90
20070;DHT22;10195;50.868;4.382;2023-09-30T08:42:18;24.30;99.90
20070;DHT22;10195;50.868;4.382;2023-09-30T08:44:46;24.80;99.90
20070;DHT22;10195;50.868;4.382;2023-09-30T08:47:11;25.00;99.90
20070;DHT22;10195;50.868;4.382;2023-09-30T08:49:38;25.20;99.90
20070;DHT22;10195;50.868;4.382;2023-09-30T08:52:06;25.60;99.90
20070;DHT22;10195;50.868;4.382;2023-09-30T08:54:31;25.30;99.90
20070;DHT22;10195;50.868;4.382;2023-09-30T08:56:58;25.70;99.90
20070;DHT22;10195;50.868;4.382;2023-09-30T08:59:25;25.70;99.90
20070;DHT22;10195;50.868;4.382;2023-09-30T09:01:52;25.70;99.90
20070;DHT22;10195;50.868;4.382;2023-09-30T09:04:17;25.60;99.90
20070;DHT22;10195;50.868;4.382;2023-09-30T09:06:43;25.00;99.90
20070;DHT22;10195;50.868;4.382;2023-09-30T09:09:13;24.30;99.90
20070;DHT22;10195;50.868;4.382;2023-09-30T09:11:40;24.00;99.90
20070;DHT22;10195;50.868;4.382;2023-09-30T09:14:05;24.60;99.90
20070;DHT22;10195;50.868;4.382;2023-09-30T09:16:32;24.80;99.90
20070;DHT22;10195;50.868;4.382;2023-09-30T09:18:58;24.90;99.90
20070;DHT22;10195;50.868;4.382;2023-09-30T09:21:24;24.90;99.90
20070;DHT22;10195;50.868;4.382;2023-09-30T09:23:51;24.40;99.90
20070;DHT22;10195;50.868;4.382;2023-09-30T09:26:26;24.40;99.90
20070;DHT22;10195;50.868;4.382;2023-09-30T09:28:59;23.50;99.90
20070;DHT22;10195;50.868;4.382;2023-09-30T09:31:31;23.70;99.90
20070;DHT22;10195;50.868;4.382;2023-09-30T09:33:59;23.70;99.90
20070;DHT22;10195;50.868;4.382;2023-09-30T09:36:42;24.30;99.90
20070;DHT22;10195;50.868;4.382;2023-09-30T09:39:09;23.80;99.90
20070;DHT22;10195;50.868;4.382;2023-09-30T09:41:51;23.70;99.90
20070;DHT22;10195;50.868;4.382;2023-09-30T09:44:21;23.70;99.90
20070;DHT22;10195;50.868;4.382;2023-09-30T09:46:48;23.60;99.90
20070;DHT22;10195;50.868;4.382;2023-09-30T09:49:16;24.00;99.90
20070;DHT22;10195;50.868;4.382;2023-09-30T09:51:44;24.00;99.90
20070;DHT22;10195;50.868;4.382;2023-09-30T09:54:11;24.60;99.90
20070;DHT22;10195;50.868;4.382;2023-09-30T09:56:39;25.00;99.90
20070;DHT22;10195;50.868;4.382;2023-09-30T09:59:05;25.30;99.90
20070;DHT22;10195;50.868;4.382;2023-09-30T10:01:33;25.30;99.90
20070;DHT22;10195;50.868;4.382;2023-09-30T10:04:00;25.80;99.90
20070;DHT22;10195;50.868;4.382;2023-09-30T10:06:29;25.60;99.90
20070;DHT22;10195;50.868;4.382;2023-09-30T10:08:56;25.30;99.90
20070;DHT22;10195;50.868;4.382;2023-09-30T10:11:23;25.40;99.90
20070;DHT22;10195;50.868;4.382;2023-09-30T10:13:57;25.30;99.90
20070;DHT22;10195;50.868;4.382;2023-09-30T10:19:11;25.70;99.90
20070;DHT22;10195;50.868;4.382;2023-09-30T10:21:37;26.10;99.90
20070;DHT22;10195;50.868;4.382;2023-09-30T10:33:08;26.10;99.90
20070;DHT22;10195;50.868;4.382;2023-09-30T10:40:51;21.40;99.90
20070;DHT22;10195;50.868;4.382;2023-09-30T10:43:37;20.50;99.90
20070;DHT22;10195;50.868;4.382;2023-09-30T10:48:52;20.60;99.90
20070;DHT22;10195;50.868;4.382;2023-09-30T10:51:21;21.00;99.90
20070;DHT22;10195;50.868;4.382;2023-09-30T10:53:51;21.00;99.90
20070;DHT22;10195;50.868;4.382;2023-09-30T10:56:20;21.40;99.90
20070;DHT22;10195;50.868;4.382;2023-09-30T10:58:47;21.70;99.90
20070;DHT22;10195;50.868;4.382;2023-09-30T11:01:19;21.70;99.90
20070;DHT22;10195;50.868;4.382;2023-09-30T11:03:47;21.70;99.90
20070;DHT22;10195;50.868;4.382;2023-09-30T11:06:15;22.00;99.90
20070;DHT22;10195;50.868;4.382;2023-09-30T11:08:53;21.90;99.90
20070;DHT22;10195;50.868;4.382;2023-09-30T11:11:19;21.80;99.90
20070;DHT22;10195;50.868;4.382;2023-09-30T11:13:56;21.90;99.90
20070;DHT22;10195;50.868;4.382;2023-09-30T11:16:22;21.80;99.90
20070;DHT22;10195;50.868;4.382;2023-09-30T11:18:53;22.00;99.90
20070;DHT22;10195;50.868;4.382;2023-09-30T11:21:19;21.80;99.90
20070;DHT22;10195;50.868;4.382;2023-09-30T11:23:44;21.80;99.90
20070;DHT22;10195;50.868;4.382;2023-09-30T11:26:11;21.50;99.90
20070;DHT22;10195;50.868;4.382;2023-09-30T11:28:41;21.70;99.90
20070;DHT22;10195;50.868;4.382;2023-09-30T11:31:11;21.80;99.90
20070;DHT22;10195;50.868;4.382;2023-09-30T11:33:49;22.00;99.90
20070;DHT22;10195;50.868;4.382;2023-09-30T11:36:16;21.90;99.90
20070;DHT22;10195;50.868;4.382;2023-09-30T11:38:47;21.90;99.90
20070;DHT22;10195;50.868;4.382;2023-09-30T11:41:13;22.00;99.90
20070;DHT22;10195;50.868;4.382;2023-09-30T11:43:45;22.20;99.90
20070;DHT22;10195;50.868;4.382;2023-09-30T11:46:24;22.20;99.90
20070;DHT22;10195;50.868;4.382;2023-09-30T11:49:03;22.10;99.90
20070;DHT22;10195;50.868;4.382;2023-09-30T11:51:34;21.90;99.90
20070;DHT22;10195;50.868;4.382;2023-09-30T11:54:08;20.80;99.90
20070;DHT22;10195;50.868;4.382;2023-09-30T11:56:36;20.70;99.90
20070;DHT22;10195;50.868;4.382;2023-09-30T11:59:02;21.00;99.90
20070;DHT22;10195;50.868;4.382;2023-09-30T12:01:29;21.50;99.90
20070;DHT22;10195;50.868;4.382;2023-09-30T12:03:58;21.90;99.90
20070;DHT22;10195;50.868;4.382;2023-09-30T12:06:29;22.10;99.90
20070;DHT22;10195;50.868;4.382;2023-09-30T12:08:55;22.20;99.90
20070;DHT22;10195;50.868;4.382;2023-09-30T12:11:21;22.30;99.90
20070;DHT22;10195;50.868;4.382;2023-09-30T12:13:49;22.40;99.90
20070;DHT22;10195;50.868;4.382;2023-09-30T12:16:16;21.90;99.90
20070;DHT22;10195;50.868;4.382;2023-09-30T12:18:42;21.20;99.90
20070;DHT22;10195;50.868;4.382;2023-09-30T12:21:10;21.30;99.90
20070;DHT22;10195;50.868;4.382;2023-09-30T12:23:39;21.50;99.90
20070;DHT22;10195;50.868;4.382;2023-09-30T12:26:05;21.60;99.90
20070;DHT22;10195;50.868;4.382;2023-09-30T12:28:34;22.00;99.90
20070;DHT22;10195;50.868;4.382;2023-09-30T12:31:01;22.30;99.90
20070;DHT22;10195;50.868;4.382;2023-09-30T12:33:33;22.70;99.90
20070;DHT22;10195;50.868;4.382;2023-09-30T12:35:59;22.80;99.90
20070;DHT22;10195;50.868;4.382;2023-09-30T12:38:25;22.10;99.90
20070;DHT22;10195;50.868;4.382;2023-09-30T12:40:53;22.10;99.90
20070;DHT22;10195;50.868;4.382;2023-09-30T12:43:19;22.10;99.90
20070;DHT22;10195;50.868;4.382;2023-09-30T12:45:45;22.30;99.90
20070;DHT22;10195;50.868;4.382;2023-09-30T12:48:12;22.40;99.90
20070;DHT22;10195;50.868;4.382;2023-09-30T12:50:38;22.50;99.90
20070;DHT22;10195;50.868;4.382;2023-09-30T12:53:04;22.60;99.90
20070;DHT22;10195;50.868;4.382;2023-09-30T12:55:30;22.10;99.90
20070;DHT22;10195;50.868;4.382;2023-09-30T12:57:56;22.00;99.90
20070;DHT22;10195;50.868;4.382;2023-09-30T13:00:21;22.20;99.90
20070;DHT22;10195;50.868;4.382;2023-09-30T13:02:47;22.40;99.90
20070;DHT22;10195;50.868;4.382;2023-09-30T13:05:14;22.30;99.90
20070;DHT22;10195;50.868;4.382;2023-09-30T13:07:40;21.80;99.90
20070;DHT22;10195;50.868;4.382;2023-09-30T13:10:06;21.30;99.90
20070;DHT22;10195;50.868;4.382;2023-09-30T13:12:33;21.00;99.90
20070;DHT22;10195;50.868;4.382;2023-09-30T13:14:59;20.90;99.90
20070;DHT22;10195;50.868;4.382;2023-09-30T13:17:25;20.90;99.90
20070;DHT22;10195;50.868;4.382;2023-09-30T13:19:51;21.20;99.90
20070;DHT22;10195;50.868;4.382;2023-09-30T13:22:20;21.50;99.90
20070;DHT22;10195;50.868;4.382;2023-09-30T13:24:46;21.40;99.90
20070;DHT22;10195;50.868;4.382;2023-09-30T13:27:12;20.90;99.90
20070;DHT22;10195;50.868;4.382;2023-09-30T13:29:39;21.20;99.90
20070;DHT22;10195;50.868;4.382;2023-09-30T13:32:06;21.30;99.90
20070;DHT22;10195;50.868;4.382;2023-09-30T13:34:32;21.20;99.90
20070;DHT22;10195;50.868;4.382;2023-09-30T13:36:57;21.50;99.90
20070;DHT22;10195;50.868;4.382;2023-09-30T13:39:23;21.60;99.90
20070;DHT22;10195;50.868;4.382;2023-09-30T13:41:50;21.80;99.90
20070;DHT22;10195;50.868;4.382;2023-09-30T13:44:16;22.00;99.90
20070;DHT22;10195;50.868;4.382;2023-09-30T13:46:41;22.10;99.90
20070;DHT22;10195;50.868;4.382;2023-09-30T13:49:08;22.30;99.90
20070;DHT22;10195;50.868;4.382;2023-09-30T13:51:33;22.40;99.90
20070;DHT22;10195;50.868;4.382;2023-09-30T13:53:59;22.40;99.90
20070;DHT22;10195;50.868;4.382;2023-09-30T13:56:25;22.40;99.90
20070;DHT22;10195;50.868;4.382;2023-09-30T13:58:51;22.50;99.90
20070;DHT22;10195;50.868;4.382;2023-09-30T14:01:17;22.50;99.90
20070;DHT22;10195;50.868;4.382;2023-09-30T14:03:45;22.60;99.90
20070;DHT22;10195;50.868;4.382;2023-09-30T14:06:13;22.70;99.90
20070;DHT22;10195;50.868;4.382;2023-09-30T14:08:40;22.80;99.90
20070;DHT22;10195;50.868;4.382;2023-09-30T14:11:08;22.50;99.90
20070;DHT22;10195;50.868;4.382;2023-09-30T14:13:34;22.40;99.90
20070;DHT22;10195;50.868;4.382;2023-09-30T14:16:01;22.30;99.90
20070;DHT22;10195;50.868;4.382;2023-09-30T14:18:27;22.50;99.90
20070;DHT22;10195;50.868;4.382;2023-09-30T14:20:52;22.60;99.90
20070;DHT22;10195;50.868;4.382;2023-09-30T14:23:18;22.50;99.90
20070;DHT22;10195;50.868;4.382;2023-09-30T14:25:44;22.20;99.90
20070;DHT22;10195;50.868;4.382;2023-09-30T14:28:10;21.90;99.90
20070;DHT22;10195;50.868;4.382;2023-09-30T14:30:36;21.80;99.90
20070;DHT22;10195;50.868;4.382;2023-09-30T14:33:01;21.70;99.90
20070;DHT22;10195;50.868;4.382;2023-09-30T14:35:28;21.70;99.90
20070;DHT22;10195;50.868;4.382;2023-09-30T14:37:54;21.30;99.90
20070;DHT22;10195;50.868;4.382;2023-09-30T14:40:22;21.20;99.90
20070;DHT22;10195;50.868;4.382;2023-09-30T14:42:47;21.10;99.90
20070;DHT22;10195;50.868;4.382;2023-09-30T14:45:13;21.00;99.90
20070;DHT22;10195;50.868;4.382;2023-09-30T14:47:39;21.10;99.90
20070;DHT22;10195;50.868;4.382;2023-09-30T14:50:08;21.10;99.90
20070;DHT22;10195;50.868;4.382;2023-09-30T14:52:34;21.20;99.90
20070;DHT22;10195;50.868;4.382;2023-09-30T14:55:00;21.30;99.90
20070;DHT22;10195;50.868;4.382;2023-09-30T14:57:25;21.30;99.90
20070;DHT22;10195;50.868;4.382;2023-09-30T14:59:51;21.40;99.90
20070;DHT22;10195;50.868;4.382;2023-09-30T15:02:17;21.30;99.90
20070;DHT22;10195;50.868;4.382;2023-09-30T15:04:43;21.30;99.90
20070;DHT22;10195;50.868;4.382;2023-09-30T15:07:08;21.30;99.90
20070;DHT22;10195;50.868;4.382;2023-09-30T15:09:34;21.00;99.90
20070;DHT22;10195;50.868;4.382;2023-09-30T15:12:00;21.10;99.90
20070;DHT22;10195;50.868;4.382;2023-09-30T15:14:26;21.20;99.90
20070;DHT22;10195;50.868;4.382;2023-09-30T15:16:52;21.20;99.90
20070;DHT22;10195;50.868;4.382;2023-09-30T15:19:17;21.10;99.90
20070;DHT22;10195;50.868;4.382;2023-09-30T15:21:43;21.20;99.90
20070;DHT22;10195;50.868;4.382;2023-09-30T15:24:09;21.00;99.90
20070;DHT22;10195;50.868;4.382;2023-09-30T15:26:36;20.90;99.90
20070;DHT22;10195;50.868;4.382;2023-09-30T15:29:02;20.80;99.90
20070;DHT22;10195;50.868;4.382;2023-09-30T15:31:29;20.80;99.90
20070;DHT22;10195;50.868;4.382;2023-09-30T15:33:58;20.80;99.90
20070;DHT22;10195;50.868;4.382;2023-09-30T15:36:24;20.80;99.90
20070;DHT22;10195;50.868;4.382;2023-09-30T15:38:51;20.90;99.90
20070;DHT22;10195;50.868;4.382;2023-09-30T15:41:22;20.80;99.90
20070;DHT22;10195;50.868;4.382;2023-09-30T15:43:49;20.80;99.90
20070;DHT22;10195;50.868;4.382;2023-09-30T15:46:15;20.80;99.90
20070;DHT22;10195;50.868;4.382;2023-09-30T15:48:41;20.90;99.90
20070;DHT22;10195;50.868;4.382;2023-09-30T15:51:06;21.00;99.90